sensor_id;sensor_type;location;lat;lon;timestamp;P1;durP1;ratioP1;P2;durP2;ratioP2
18623;SDS011;9441;51.420;7.036;2023-12-22T00:00:56;5.13;;;1.53;;
18623;SDS011;9441;51.420;7.036;2023-12-22T00:01:59;15.17;;;1.80;;
18623;SDS011;9441;51.420;7.036;2023-12-22T00:03:00;9.20;;;1.60;;
18623;SDS011;9441;51.420;7.036;2023-12-22T00:04:02;11.17;;;1.40;;
18623;SDS011;9441;51.420;7.036;2023-12-22T00:05:06;10.60;;;1.50;;
18623;SDS011;9441;51.420;7.036;2023-12-22T00:06:07;9.97;;;1.40;;
18623;SDS011;9441;51.420;7.036;2023-12-22T00:07:11;10.43;;;1.50;;
18623;SDS011;9441;51.420;7.036;2023-12-22T00:08:13;10.63;;;1.90;;
18623;SDS011;9441;51.420;7.036;2023-12-22T00:09:15;12.77;;;1.60;;
18623;SDS011;9441;51.420;7.036;2023-12-22T00:10:17;13.40;;;1.53;;
18623;SDS011;9441;51.420;7.036;2023-12-22T00:11:18;10.40;;;1.53;;
18623;SDS011;9441;51.420;7.036;2023-12-22T00:12:22;18.03;;;2.27;;
18623;SDS011;9441;51.420;7.036;2023-12-22T00:13:23;19.80;;;2.40;;
18623;SDS011;9441;51.420;7.036;2023-12-22T00:14:25;15.10;;;1.87;;
18623;SDS011;9441;51.420;7.036;2023-12-22T00:15:27;9.50;;;2.23;;
18623;SDS011;9441;51.420;7.036;2023-12-22T00:16:29;7.10;;;2.17;;
18623;SDS011;9441;51.420;7.036;2023-12-22T00:17:30;9.20;;;1.73;;
18623;SDS011;9441;51.420;7.036;2023-12-22T00:18:33;14.37;;;2.00;;
18623;SDS011;9441;51.420;7.036;2023-12-22T00:19:34;17.03;;;2.07;;
18623;SDS011;9441;51.420;7.036;2023-12-22T00:20:36;7.97;;;1.53;;
18623;SDS011;9441;51.420;7.036;2023-12-22T00:21:38;11.13;;;1.60;;
18623;SDS011;9441;51.420;7.036;2023-12-22T00:22:40;16.43;;;2.00;;
18623;SDS011;9441;51.420;7.036;2023-12-22T00:23:41;10.80;;;1.80;;
18623;SDS011;9441;51.420;7.036;2023-12-22T00:24:44;6.93;;;1.67;;
18623;SDS011;9441;51.420;7.036;2023-12-22T00:25:47;10.63;;;2.27;;
18623;SDS011;9441;51.420;7.036;2023-12-22T00:26:49;7.23;;;1.37;;
18623;SDS011;9441;51.420;7.036;2023-12-22T00:27:52;11.70;;;1.90;;
18623;SDS011;9441;51.420;7.036;2023-12-22T00:28:54;13.83;;;1.83;;
18623;SDS011;9441;51.420;7.036;2023-12-22T00:29:55;10.40;;;1.90;;
18623;SDS011;9441;51.420;7.036;2023-12-22T00:30:57;10.97;;;1.93;;
18623;SDS011;9441;51.420;7.036;2023-12-22T00:31:59;8.83;;;1.83;;
18623;SDS011;9441;51.420;7.036;2023-12-22T00:33:01;9.63;;;1.50;;
18623;SDS011;9441;51.420;7.036;2023-12-22T00:34:03;13.30;;;1.60;;
18623;SDS011;9441;51.420;7.036;2023-12-22T00:35:05;8.50;;;1.63;;
18623;SDS011;9441;51.420;7.036;2023-12-22T00:36:07;16.93;;;2.00;;
18623;SDS011;9441;51.420;7.036;2023-12-22T00:37:08;11.87;;;1.80;;
18623;SDS011;9441;51.420;7.036;2023-12-22T00:38:12;9.73;;;1.93;;
18623;SDS011;9441;51.420;7.036;2023-12-22T00:39:13;14.97;;;1.60;;
18623;SDS011;9441;51.420;7.036;2023-12-22T00:40:16;7.90;;;1.80;;
18623;SDS011;9441;51.420;7.036;2023-12-22T00:41:17;14.83;;;1.93;;
18623;SDS011;9441;51.420;7.036;2023-12-22T00:42:20;12.03;;;2.00;;
18623;SDS011;9441;51.420;7.036;2023-12-22T00:43:22;8.87;;;1.67;;
18623;SDS011;9441;51.420;7.036;2023-12-22T00:44:25;18.27;;;2.37;;
18623;SDS011;9441;51.420;7.036;2023-12-22T00:45:27;17.83;;;2.20;;
18623;SDS011;9441;51.420;7.036;2023-12-22T00:46:30;11.00;;;1.63;;
18623;SDS011;9441;51.420;7.036;2023-12-22T00:47:32;13.87;;;1.90;;
18623;SDS011;9441;51.420;7.036;2023-12-22T00:48:35;12.67;;;1.80;;
18623;SDS011;9441;51.420;7.036;2023-12-22T00:49:37;13.33;;;1.80;;
18623;SDS011;9441;51.420;7.036;2023-12-22T00:50:39;14.60;;;2.40;;
18623;SDS011;9441;51.420;7.036;2023-12-22T00:51:40;21.83;;;2.43;;
18623;SDS011;9441;51.420;7.036;2023-12-22T00:52:43;13.30;;;1.60;;
18623;SDS011;9441;51.420;7.036;2023-12-22T00:53:44;8.33;;;1.83;;
18623;SDS011;9441;51.420;7.036;2023-12-22T00:54:46;10.50;;;1.80;;
18623;SDS011;9441;51.420;7.036;2023-12-22T00:55:48;17.67;;;1.90;;
18623;SDS011;9441;51.420;7.036;2023-12-22T00:56:50;8.77;;;1.83;;
18623;SDS011;9441;51.420;7.036;2023-12-22T00:57:51;12.87;;;2.00;;
18623;SDS011;9441;51.420;7.036;2023-12-22T00:58:55;12.30;;;2.40;;
18623;SDS011;9441;51.420;7.036;2023-12-22T00:59:56;13.73;;;1.80;;
18623;SDS011;9441;51.420;7.036;2023-12-22T01:00:59;10.13;;;1.80;;
18623;SDS011;9441;51.420;7.036;2023-12-22T01:02:00;15.33;;;1.80;;
18623;SDS011;9441;51.420;7.036;2023-12-22T01:03:03;23.27;;;2.93;;
18623;SDS011;9441;51.420;7.036;2023-12-22T01:04:04;11.10;;;1.93;;
18623;SDS011;9441;51.420;7.036;2023-12-22T01:05:07;16.97;;;1.87;;
18623;SDS011;9441;51.420;7.036;2023-12-22T01:06:08;9.33;;;1.83;;
18623;SDS011;9441;51.420;7.036;2023-12-22T01:07:10;11.30;;;1.90;;
18623;SDS011;9441;51.420;7.036;2023-12-22T01:08:12;25.43;;;2.23;;
18623;SDS011;9441;51.420;7.036;2023-12-22T01:09:15;13.90;;;1.73;;
18623;SDS011;9441;51.420;7.036;2023-12-22T01:10:16;16.77;;;2.37;;
18623;SDS011;9441;51.420;7.036;2023-12-22T01:11:19;26.70;;;2.30;;
18623;SDS011;9441;51.420;7.036;2023-12-22T01:12:20;14.83;;;2.00;;
18623;SDS011;9441;51.420;7.036;2023-12-22T01:13:22;16.73;;;2.57;;
18623;SDS011;9441;51.420;7.036;2023-12-22T01:14:25;18.10;;;2.10;;
18623;SDS011;9441;51.420;7.036;2023-12-22T01:15:27;15.53;;;1.90;;
18623;SDS011;9441;51.420;7.036;2023-12-22T01:16:28;12.17;;;2.17;;
18623;SDS011;9441;51.420;7.036;2023-12-22T01:17:31;18.67;;;2.23;;
18623;SDS011;9441;51.420;7.036;2023-12-22T01:18:32;14.53;;;2.10;;
18623;SDS011;9441;51.420;7.036;2023-12-22T01:19:34;13.73;;;1.97;;
18623;SDS011;9441;51.420;7.036;2023-12-22T01:20:36;16.63;;;1.90;;
18623;SDS011;9441;51.420;7.036;2023-12-22T01:21:38;18.77;;;2.03;;
18623;SDS011;9441;51.420;7.036;2023-12-22T01:22:39;15.07;;;2.33;;
18623;SDS011;9441;51.420;7.036;2023-12-22T01:23:41;14.50;;;1.87;;
18623;SDS011;9441;51.420;7.036;2023-12-22T01:24:43;16.10;;;1.83;;
18623;SDS011;9441;51.420;7.036;2023-12-22T01:25:45;13.43;;;2.00;;
18623;SDS011;9441;51.420;7.036;2023-12-22T01:26:47;14.73;;;2.00;;
18623;SDS011;9441;51.420;7.036;2023-12-22T01:27:49;12.03;;;2.30;;
18623;SDS011;9441;51.420;7.036;2023-12-22T01:28:52;7.40;;;1.80;;
18623;SDS011;9441;51.420;7.036;2023-12-22T01:29:56;11.90;;;2.10;;
18623;SDS011;9441;51.420;7.036;2023-12-22T01:30:58;11.37;;;1.97;;
18623;SDS011;9441;51.420;7.036;2023-12-22T01:32:00;13.57;;;1.80;;
18623;SDS011;9441;51.420;7.036;2023-12-22T01:33:01;13.93;;;1.57;;
18623;SDS011;9441;51.420;7.036;2023-12-22T01:34:03;8.63;;;1.70;;
18623;SDS011;9441;51.420;7.036;2023-12-22T01:35:05;7.90;;;1.80;;
18623;SDS011;9441;51.420;7.036;2023-12-22T01:36:10;13.40;;;2.20;;
18623;SDS011;9441;51.420;7.036;2023-12-22T01:37:11;14.40;;;2.00;;
18623;SDS011;9441;51.420;7.036;2023-12-22T01:38:14;9.03;;;1.60;;
18623;SDS011;9441;51.420;7.036;2023-12-22T01:39:15;6.70;;;1.50;;
18623;SDS011;9441;51.420;7.036;2023-12-22T01:40:18;8.87;;;1.17;;
18623;SDS011;9441;51.420;7.036;2023-12-22T01:41:19;8.33;;;1.67;;
18623;SDS011;9441;51.420;7.036;2023-12-22T01:42:21;11.20;;;1.33;;
18623;SDS011;9441;51.420;7.036;2023-12-22T01:43:23;6.77;;;1.00;;
18623;SDS011;9441;51.420;7.036;2023-12-22T01:44:25;3.67;;;0.90;;
18623;SDS011;9441;51.420;7.036;2023-12-22T01:45:28;4.50;;;0.80;;
18623;SDS011;9441;51.420;7.036;2023-12-22T01:46:30;3.13;;;0.80;;
18623;SDS011;9441;51.420;7.036;2023-12-22T01:47:32;3.70;;;0.87;;
18623;SDS011;9441;51.420;7.036;2023-12-22T01:48:33;7.43;;;0.97;;
18623;SDS011;9441;51.420;7.036;2023-12-22T01:49:37;4.90;;;0.73;;
18623;SDS011;9441;51.420;7.036;2023-12-22T01:50:38;3.30;;;0.70;;
18623;SDS011;9441;51.420;7.036;2023-12-22T01:51:40;2.93;;;0.70;;
18623;SDS011;9441;51.420;7.036;2023-12-22T01:52:42;2.17;;;0.53;;
18623;SDS011;9441;51.420;7.036;2023-12-22T01:53:45;5.80;;;0.67;;
18623;SDS011;9441;51.420;7.036;2023-12-22T01:54:47;4.70;;;0.63;;
18623;SDS011;9441;51.420;7.036;2023-12-22T01:55:49;3.67;;;0.90;;
18623;SDS011;9441;51.420;7.036;2023-12-22T01:56:51;1.47;;;0.73;;
18623;SDS011;9441;51.420;7.036;2023-12-22T01:57:53;7.70;;;1.00;;
18623;SDS011;9441;51.420;7.036;2023-12-22T01:58:55;8.60;;;0.93;;
18623;SDS011;9441;51.420;7.036;2023-12-22T01:59:59;8.37;;;1.00;;
18623;SDS011;9441;51.420;7.036;2023-12-22T02:01:02;3.67;;;0.97;;
18623;SDS011;9441;51.420;7.036;2023-12-22T02:02:04;4.60;;;1.00;;
18623;SDS011;9441;51.420;7.036;2023-12-22T02:03:06;3.73;;;0.90;;
18623;SDS011;9441;51.420;7.036;2023-12-22T02:04:08;10.10;;;1.33;;
18623;SDS011;9441;51.420;7.036;2023-12-22T02:05:10;10.20;;;1.53;;
18623;SDS011;9441;51.420;7.036;2023-12-22T02:06:12;6.07;;;1.27;;
18623;SDS011;9441;51.420;7.036;2023-12-22T02:07:14;10.83;;;1.20;;
18623;SDS011;9441;51.420;7.036;2023-12-22T02:08:17;14.93;;;1.90;;
18623;SDS011;9441;51.420;7.036;2023-12-22T02:09:19;7.30;;;1.50;;
18623;SDS011;9441;51.420;7.036;2023-12-22T02:10:21;4.80;;;1.33;;
18623;SDS011;9441;51.420;7.036;2023-12-22T02:11:22;6.80;;;1.63;;
18623;SDS011;9441;51.420;7.036;2023-12-22T02:12:25;6.90;;;1.30;;
18623;SDS011;9441;51.420;7.036;2023-12-22T02:13:26;14.03;;;1.63;;
18623;SDS011;9441;51.420;7.036;2023-12-22T02:14:28;9.83;;;2.03;;
18623;SDS011;9441;51.420;7.036;2023-12-22T02:15:31;7.23;;;1.47;;
18623;SDS011;9441;51.420;7.036;2023-12-22T02:16:37;10.53;;;1.80;;
18623;SDS011;9441;51.420;7.036;2023-12-22T02:17:43;8.03;;;2.03;;
18623;SDS011;9441;51.420;7.036;2023-12-22T02:18:46;9.13;;;2.03;;
18623;SDS011;9441;51.420;7.036;2023-12-22T02:19:49;9.33;;;1.83;;
18623;SDS011;9441;51.420;7.036;2023-12-22T02:20:51;12.83;;;2.60;;
18623;SDS011;9441;51.420;7.036;2023-12-22T02:22:01;8.73;;;1.63;;
18623;SDS011;9441;51.420;7.036;2023-12-22T02:23:03;12.63;;;1.90;;
18623;SDS011;9441;51.420;7.036;2023-12-22T02:24:06;13.90;;;1.90;;
18623;SDS011;9441;51.420;7.036;2023-12-22T02:25:07;11.37;;;1.57;;
18623;SDS011;9441;51.420;7.036;2023-12-22T02:26:10;10.57;;;1.73;;
18623;SDS011;9441;51.420;7.036;2023-12-22T02:27:15;7.03;;;1.40;;
18623;SDS011;9441;51.420;7.036;2023-12-22T02:28:19;9.53;;;1.60;;
18623;SDS011;9441;51.420;7.036;2023-12-22T02:29:22;6.27;;;1.50;;
18623;SDS011;9441;51.420;7.036;2023-12-22T02:30:26;7.40;;;1.70;;
18623;SDS011;9441;51.420;7.036;2023-12-22T02:31:33;17.00;;;2.00;;
18623;SDS011;9441;51.420;7.036;2023-12-22T02:32:38;15.40;;;1.70;;
18623;SDS011;9441;51.420;7.036;2023-12-22T02:33:41;10.63;;;1.70;;
18623;SDS011;9441;51.420;7.036;2023-12-22T02:34:43;12.33;;;1.90;;
18623;SDS011;9441;51.420;7.036;2023-12-22T02:35:47;11.57;;;2.03;;
18623;SDS011;9441;51.420;7.036;2023-12-22T02:36:51;10.10;;;1.90;;
18623;SDS011;9441;51.420;7.036;2023-12-22T02:37:54;11.03;;;1.70;;
18623;SDS011;9441;51.420;7.036;2023-12-22T02:38:59;12.40;;;2.20;;
18623;SDS011;9441;51.420;7.036;2023-12-22T02:40:02;14.90;;;2.03;;
18623;SDS011;9441;51.420;7.036;2023-12-22T02:41:04;13.00;;;2.17;;
18623;SDS011;9441;51.420;7.036;2023-12-22T02:42:06;12.33;;;2.57;;
18623;SDS011;9441;51.420;7.036;2023-12-22T02:43:09;8.40;;;1.70;;
18623;SDS011;9441;51.420;7.036;2023-12-22T02:44:10;13.53;;;2.17;;
18623;SDS011;9441;51.420;7.036;2023-12-22T02:45:13;10.40;;;2.27;;
18623;SDS011;9441;51.420;7.036;2023-12-22T02:46:15;19.70;;;3.40;;
18623;SDS011;9441;51.420;7.036;2023-12-22T02:47:16;11.50;;;2.53;;
18623;SDS011;9441;51.420;7.036;2023-12-22T02:48:19;14.73;;;2.50;;
18623;SDS011;9441;51.420;7.036;2023-12-22T02:49:20;11.77;;;2.60;;
18623;SDS011;9441;51.420;7.036;2023-12-22T02:50:22;11.00;;;2.30;;
18623;SDS011;9441;51.420;7.036;2023-12-22T02:51:23;11.80;;;2.30;;
18623;SDS011;9441;51.420;7.036;2023-12-22T02:52:26;14.83;;;2.10;;
18623;SDS011;9441;51.420;7.036;2023-12-22T02:53:27;16.07;;;2.50;;
18623;SDS011;9441;51.420;7.036;2023-12-22T02:54:31;16.50;;;2.53;;
18623;SDS011;9441;51.420;7.036;2023-12-22T02:55:33;10.43;;;2.83;;
18623;SDS011;9441;51.420;7.036;2023-12-22T02:56:35;14.73;;;2.90;;
18623;SDS011;9441;51.420;7.036;2023-12-22T02:57:36;15.83;;;2.37;;
18623;SDS011;9441;51.420;7.036;2023-12-22T02:58:39;21.23;;;3.23;;
18623;SDS011;9441;51.420;7.036;2023-12-22T02:59:40;17.33;;;3.10;;
18623;SDS011;9441;51.420;7.036;2023-12-22T03:00:42;17.53;;;3.10;;
18623;SDS011;9441;51.420;7.036;2023-12-22T03:01:44;14.10;;;2.70;;
18623;SDS011;9441;51.420;7.036;2023-12-22T03:02:46;17.40;;;3.17;;
18623;SDS011;9441;51.420;7.036;2023-12-22T03:03:47;20.43;;;2.97;;
18623;SDS011;9441;51.420;7.036;2023-12-22T03:04:50;12.23;;;2.50;;
18623;SDS011;9441;51.420;7.036;2023-12-22T03:05:51;15.80;;;2.93;;
18623;SDS011;9441;51.420;7.036;2023-12-22T03:06:53;20.23;;;3.10;;
18623;SDS011;9441;51.420;7.036;2023-12-22T03:07:55;15.70;;;2.50;;
18623;SDS011;9441;51.420;7.036;2023-12-22T03:08:56;17.23;;;2.20;;
18623;SDS011;9441;51.420;7.036;2023-12-22T03:10:00;13.37;;;2.53;;
18623;SDS011;9441;51.420;7.036;2023-12-22T03:11:02;15.57;;;2.43;;
18623;SDS011;9441;51.420;7.036;2023-12-22T03:12:04;8.70;;;2.00;;
18623;SDS011;9441;51.420;7.036;2023-12-22T03:13:06;15.63;;;2.27;;
18623;SDS011;9441;51.420;7.036;2023-12-22T03:14:08;13.63;;;2.17;;
18623;SDS011;9441;51.420;7.036;2023-12-22T03:15:10;15.83;;;2.00;;
18623;SDS011;9441;51.420;7.036;2023-12-22T03:16:12;12.77;;;2.60;;
18623;SDS011;9441;51.420;7.036;2023-12-22T03:17:14;10.67;;;2.30;;
18623;SDS011;9441;51.420;7.036;2023-12-22T03:18:15;13.53;;;2.43;;
18623;SDS011;9441;51.420;7.036;2023-12-22T03:19:17;10.47;;;2.00;;
18623;SDS011;9441;51.420;7.036;2023-12-22T03:20:19;11.50;;;1.97;;
18623;SDS011;9441;51.420;7.036;2023-12-22T03:21:21;17.97;;;2.13;;
18623;SDS011;9441;51.420;7.036;2023-12-22T03:22:22;7.43;;;1.97;;
18623;SDS011;9441;51.420;7.036;2023-12-22T03:23:25;14.83;;;2.27;;
18623;SDS011;9441;51.420;7.036;2023-12-22T03:24:26;14.43;;;2.00;;
18623;SDS011;9441;51.420;7.036;2023-12-22T03:25:30;16.70;;;1.83;;
18623;SDS011;9441;51.420;7.036;2023-12-22T03:26:31;12.53;;;1.67;;
18623;SDS011;9441;51.420;7.036;2023-12-22T03:27:32;12.03;;;2.17;;
18623;SDS011;9441;51.420;7.036;2023-12-22T03:28:35;9.23;;;1.90;;
18623;SDS011;9441;51.420;7.036;2023-12-22T03:29:36;15.53;;;2.40;;
18623;SDS011;9441;51.420;7.036;2023-12-22T03:30:38;13.20;;;2.50;;
18623;SDS011;9441;51.420;7.036;2023-12-22T03:31:40;14.07;;;2.57;;
18623;SDS011;9441;51.420;7.036;2023-12-22T03:32:42;24.20;;;2.60;;
18623;SDS011;9441;51.420;7.036;2023-12-22T03:33:43;17.33;;;2.40;;
18623;SDS011;9441;51.420;7.036;2023-12-22T03:34:45;18.27;;;2.50;;
18623;SDS011;9441;51.420;7.036;2023-12-22T03:35:47;16.93;;;2.67;;
18623;SDS011;9441;51.420;7.036;2023-12-22T03:36:48;22.60;;;2.70;;
18623;SDS011;9441;51.420;7.036;2023-12-22T03:37:50;16.07;;;2.10;;
18623;SDS011;9441;51.420;7.036;2023-12-22T03:38:52;22.57;;;3.00;;
18623;SDS011;9441;51.420;7.036;2023-12-22T03:39:53;22.03;;;2.60;;
18623;SDS011;9441;51.420;7.036;2023-12-22T03:40:57;16.93;;;2.43;;
18623;SDS011;9441;51.420;7.036;2023-12-22T03:41:58;21.67;;;3.40;;
18623;SDS011;9441;51.420;7.036;2023-12-22T03:43:00;12.60;;;2.63;;
18623;SDS011;9441;51.420;7.036;2023-12-22T03:44:02;17.10;;;2.67;;
18623;SDS011;9441;51.420;7.036;2023-12-22T03:45:04;15.93;;;2.60;;
18623;SDS011;9441;51.420;7.036;2023-12-22T03:46:06;19.10;;;2.93;;
18623;SDS011;9441;51.420;7.036;2023-12-22T03:47:09;16.53;;;2.47;;
18623;SDS011;9441;51.420;7.036;2023-12-22T03:48:10;18.73;;;2.83;;
18623;SDS011;9441;51.420;7.036;2023-12-22T03:49:13;17.17;;;3.20;;
18623;SDS011;9441;51.420;7.036;2023-12-22T03:50:14;13.60;;;2.87;;
18623;SDS011;9441;51.420;7.036;2023-12-22T03:51:16;21.83;;;2.83;;
18623;SDS011;9441;51.420;7.036;2023-12-22T03:52:18;20.93;;;2.83;;
18623;SDS011;9441;51.420;7.036;2023-12-22T03:53:19;22.50;;;3.27;;
18623;SDS011;9441;51.420;7.036;2023-12-22T03:54:21;20.53;;;3.07;;
18623;SDS011;9441;51.420;7.036;2023-12-22T03:55:23;17.60;;;2.53;;
18623;SDS011;9441;51.420;7.036;2023-12-22T03:56:26;17.50;;;2.57;;
18623;SDS011;9441;51.420;7.036;2023-12-22T03:57:28;20.13;;;2.77;;
18623;SDS011;9441;51.420;7.036;2023-12-22T03:58:30;19.57;;;2.73;;
18623;SDS011;9441;51.420;7.036;2023-12-22T03:59:31;19.97;;;3.17;;
18623;SDS011;9441;51.420;7.036;2023-12-22T04:00:34;19.60;;;2.80;;
18623;SDS011;9441;51.420;7.036;2023-12-22T04:01:35;15.83;;;2.43;;
18623;SDS011;9441;51.420;7.036;2023-12-22T04:02:37;18.90;;;2.50;;
18623;SDS011;9441;51.420;7.036;2023-12-22T04:03:39;21.23;;;2.73;;
18623;SDS011;9441;51.420;7.036;2023-12-22T04:04:41;21.37;;;2.70;;
18623;SDS011;9441;51.420;7.036;2023-12-22T04:05:43;24.00;;;3.07;;
18623;SDS011;9441;51.420;7.036;2023-12-22T04:06:44;18.70;;;2.43;;
18623;SDS011;9441;51.420;7.036;2023-12-22T04:07:47;13.90;;;2.67;;
18623;SDS011;9441;51.420;7.036;2023-12-22T04:08:48;15.53;;;2.47;;
18623;SDS011;9441;51.420;7.036;2023-12-22T04:09:49;23.30;;;2.50;;
18623;SDS011;9441;51.420;7.036;2023-12-22T04:10:51;23.17;;;2.53;;
18623;SDS011;9441;51.420;7.036;2023-12-22T04:11:54;13.90;;;2.20;;
18623;SDS011;9441;51.420;7.036;2023-12-22T04:12:56;20.57;;;2.53;;
18623;SDS011;9441;51.420;7.036;2023-12-22T04:13:58;16.73;;;1.90;;
18623;SDS011;9441;51.420;7.036;2023-12-22T04:15:00;12.63;;;2.17;;
18623;SDS011;9441;51.420;7.036;2023-12-22T04:16:01;18.27;;;2.30;;
18623;SDS011;9441;51.420;7.036;2023-12-22T04:17:05;15.03;;;2.00;;
18623;SDS011;9441;51.420;7.036;2023-12-22T04:18:06;23.07;;;2.40;;
18623;SDS011;9441;51.420;7.036;2023-12-22T04:19:09;9.67;;;2.17;;
18623;SDS011;9441;51.420;7.036;2023-12-22T04:20:10;18.87;;;2.20;;
18623;SDS011;9441;51.420;7.036;2023-12-22T04:21:13;14.03;;;2.20;;
18623;SDS011;9441;51.420;7.036;2023-12-22T04:22:14;16.57;;;1.90;;
18623;SDS011;9441;51.420;7.036;2023-12-22T04:23:17;17.20;;;2.67;;
18623;SDS011;9441;51.420;7.036;2023-12-22T04:24:18;20.50;;;2.33;;
18623;SDS011;9441;51.420;7.036;2023-12-22T04:25:20;20.27;;;1.77;;
18623;SDS011;9441;51.420;7.036;2023-12-22T04:26:23;16.27;;;2.07;;
18623;SDS011;9441;51.420;7.036;2023-12-22T04:27:26;16.57;;;2.40;;
18623;SDS011;9441;51.420;7.036;2023-12-22T04:28:28;16.40;;;2.40;;
18623;SDS011;9441;51.420;7.036;2023-12-22T04:29:30;19.30;;;2.23;;
18623;SDS011;9441;51.420;7.036;2023-12-22T04:30:32;15.13;;;2.17;;
18623;SDS011;9441;51.420;7.036;2023-12-22T04:31:34;19.97;;;2.37;;
18623;SDS011;9441;51.420;7.036;2023-12-22T04:32:35;19.77;;;2.40;;
18623;SDS011;9441;51.420;7.036;2023-12-22T04:33:38;17.53;;;2.00;;
18623;SDS011;9441;51.420;7.036;2023-12-22T04:34:39;20.37;;;2.77;;
18623;SDS011;9441;51.420;7.036;2023-12-22T04:35:41;22.67;;;2.67;;
18623;SDS011;9441;51.420;7.036;2023-12-22T04:36:42;23.83;;;2.73;;
18623;SDS011;9441;51.420;7.036;2023-12-22T04:37:45;15.13;;;2.53;;
18623;SDS011;9441;51.420;7.036;2023-12-22T04:38:46;11.77;;;2.53;;
18623;SDS011;9441;51.420;7.036;2023-12-22T04:39:48;20.47;;;1.83;;
18623;SDS011;9441;51.420;7.036;2023-12-22T04:40:50;21.43;;;2.60;;
18623;SDS011;9441;51.420;7.036;2023-12-22T04:41:52;18.73;;;2.67;;
18623;SDS011;9441;51.420;7.036;2023-12-22T04:42:55;14.30;;;2.83;;
18623;SDS011;9441;51.420;7.036;2023-12-22T04:43:57;22.27;;;2.47;;
18623;SDS011;9441;51.420;7.036;2023-12-22T04:45:03;15.27;;;3.30;;
18623;SDS011;9441;51.420;7.036;2023-12-22T04:46:05;17.23;;;2.90;;
18623;SDS011;9441;51.420;7.036;2023-12-22T04:47:07;26.23;;;2.97;;
18623;SDS011;9441;51.420;7.036;2023-12-22T04:48:09;21.77;;;3.23;;
18623;SDS011;9441;51.420;7.036;2023-12-22T04:49:11;17.10;;;2.83;;
18623;SDS011;9441;51.420;7.036;2023-12-22T04:50:13;20.70;;;3.10;;
18623;SDS011;9441;51.420;7.036;2023-12-22T04:51:14;24.00;;;3.40;;
18623;SDS011;9441;51.420;7.036;2023-12-22T04:52:17;17.57;;;2.90;;
18623;SDS011;9441;51.420;7.036;2023-12-22T04:53:18;17.63;;;3.27;;
18623;SDS011;9441;51.420;7.036;2023-12-22T04:54:21;26.20;;;2.97;;
18623;SDS011;9441;51.420;7.036;2023-12-22T04:55:22;22.80;;;3.30;;
18623;SDS011;9441;51.420;7.036;2023-12-22T04:56:26;17.67;;;2.83;;
18623;SDS011;9441;51.420;7.036;2023-12-22T04:57:27;23.60;;;3.27;;
18623;SDS011;9441;51.420;7.036;2023-12-22T04:58:31;19.30;;;2.50;;
18623;SDS011;9441;51.420;7.036;2023-12-22T04:59:32;19.90;;;3.13;;
18623;SDS011;9441;51.420;7.036;2023-12-22T05:00:34;15.53;;;2.80;;
18623;SDS011;9441;51.420;7.036;2023-12-22T05:01:35;30.10;;;3.43;;
18623;SDS011;9441;51.420;7.036;2023-12-22T05:02:38;22.73;;;3.20;;
18623;SDS011;9441;51.420;7.036;2023-12-22T05:03:39;19.60;;;3.33;;
18623;SDS011;9441;51.420;7.036;2023-12-22T05:04:42;21.93;;;3.37;;
18623;SDS011;9441;51.420;7.036;2023-12-22T05:05:43;18.67;;;2.80;;
18623;SDS011;9441;51.420;7.036;2023-12-22T05:06:45;20.00;;;2.70;;
18623;SDS011;9441;51.420;7.036;2023-12-22T05:07:47;27.03;;;3.27;;
18623;SDS011;9441;51.420;7.036;2023-12-22T05:08:50;14.70;;;3.00;;
18623;SDS011;9441;51.420;7.036;2023-12-22T05:09:51;20.97;;;2.80;;
18623;SDS011;9441;51.420;7.036;2023-12-22T05:10:54;16.13;;;3.17;;
18623;SDS011;9441;51.420;7.036;2023-12-22T05:11:56;18.03;;;3.03;;
18623;SDS011;9441;51.420;7.036;2023-12-22T05:12:58;10.20;;;2.60;;
18623;SDS011;9441;51.420;7.036;2023-12-22T05:14:01;14.37;;;2.20;;
18623;SDS011;9441;51.420;7.036;2023-12-22T05:15:04;18.87;;;2.20;;
18623;SDS011;9441;51.420;7.036;2023-12-22T05:16:06;9.83;;;1.80;;
18623;SDS011;9441;51.420;7.036;2023-12-22T05:17:09;11.47;;;1.80;;
18623;SDS011;9441;51.420;7.036;2023-12-22T05:18:10;11.63;;;2.20;;
18623;SDS011;9441;51.420;7.036;2023-12-22T05:19:12;13.57;;;1.80;;
18623;SDS011;9441;51.420;7.036;2023-12-22T05:20:14;18.80;;;2.10;;
18623;SDS011;9441;51.420;7.036;2023-12-22T05:21:16;16.03;;;1.83;;
18623;SDS011;9441;51.420;7.036;2023-12-22T05:22:18;10.07;;;1.50;;
18623;SDS011;9441;51.420;7.036;2023-12-22T05:23:19;8.97;;;1.70;;
18623;SDS011;9441;51.420;7.036;2023-12-22T05:24:22;14.90;;;1.83;;
18623;SDS011;9441;51.420;7.036;2023-12-22T05:25:23;9.73;;;1.67;;
18623;SDS011;9441;51.420;7.036;2023-12-22T05:26:25;12.73;;;1.60;;
18623;SDS011;9441;51.420;7.036;2023-12-22T05:27:30;16.07;;;1.60;;
18623;SDS011;9441;51.420;7.036;2023-12-22T05:28:33;15.07;;;1.60;;
18623;SDS011;9441;51.420;7.036;2023-12-22T05:29:36;10.37;;;1.50;;
18623;SDS011;9441;51.420;7.036;2023-12-22T05:30:38;6.40;;;1.60;;
18623;SDS011;9441;51.420;7.036;2023-12-22T05:31:39;12.20;;;1.53;;
18623;SDS011;9441;51.420;7.036;2023-12-22T05:32:41;7.93;;;1.33;;
18623;SDS011;9441;51.420;7.036;2023-12-22T05:33:44;13.40;;;1.60;;
18623;SDS011;9441;51.420;7.036;2023-12-22T05:34:46;11.20;;;1.70;;
18623;SDS011;9441;51.420;7.036;2023-12-22T05:35:48;8.57;;;1.40;;
18623;SDS011;9441;51.420;7.036;2023-12-22T05:36:50;6.97;;;1.80;;
18623;SDS011;9441;51.420;7.036;2023-12-22T05:37:52;5.47;;;1.80;;
18623;SDS011;9441;51.420;7.036;2023-12-22T05:38:53;7.17;;;2.03;;
18623;SDS011;9441;51.420;7.036;2023-12-22T05:39:56;12.67;;;2.73;;
18623;SDS011;9441;51.420;7.036;2023-12-22T05:40:57;13.57;;;2.50;;
18623;SDS011;9441;51.420;7.036;2023-12-22T05:41:59;10.77;;;2.17;;
18623;SDS011;9441;51.420;7.036;2023-12-22T05:43:01;13.50;;;2.17;;
18623;SDS011;9441;51.420;7.036;2023-12-22T05:44:03;7.57;;;2.20;;
18623;SDS011;9441;51.420;7.036;2023-12-22T05:45:07;17.53;;;2.97;;
18623;SDS011;9441;51.420;7.036;2023-12-22T05:46:11;13.70;;;2.10;;
18623;SDS011;9441;51.420;7.036;2023-12-22T05:47:12;16.67;;;2.53;;
18623;SDS011;9441;51.420;7.036;2023-12-22T05:48:15;10.37;;;2.23;;
18623;SDS011;9441;51.420;7.036;2023-12-22T05:49:16;11.07;;;2.20;;
18623;SDS011;9441;51.420;7.036;2023-12-22T05:50:18;18.27;;;2.80;;
18623;SDS011;9441;51.420;7.036;2023-12-22T05:51:20;16.20;;;2.33;;
18623;SDS011;9441;51.420;7.036;2023-12-22T05:52:22;12.10;;;2.30;;
18623;SDS011;9441;51.420;7.036;2023-12-22T05:53:23;7.20;;;2.50;;
18623;SDS011;9441;51.420;7.036;2023-12-22T05:54:26;9.13;;;2.30;;
18623;SDS011;9441;51.420;7.036;2023-12-22T05:55:27;11.03;;;2.13;;
18623;SDS011;9441;51.420;7.036;2023-12-22T05:56:30;12.47;;;2.57;;
18623;SDS011;9441;51.420;7.036;2023-12-22T05:57:31;19.80;;;2.97;;
18623;SDS011;9441;51.420;7.036;2023-12-22T05:58:34;5.97;;;2.13;;
18623;SDS011;9441;51.420;7.036;2023-12-22T05:59:36;12.10;;;2.20;;
18623;SDS011;9441;51.420;7.036;2023-12-22T06:00:39;19.43;;;2.70;;
18623;SDS011;9441;51.420;7.036;2023-12-22T06:01:40;9.57;;;2.40;;
18623;SDS011;9441;51.420;7.036;2023-12-22T06:02:43;13.93;;;2.80;;
18623;SDS011;9441;51.420;7.036;2023-12-22T06:03:44;17.30;;;2.50;;
18623;SDS011;9441;51.420;7.036;2023-12-22T06:04:47;14.33;;;2.27;;
18623;SDS011;9441;51.420;7.036;2023-12-22T06:05:48;11.83;;;2.47;;
18623;SDS011;9441;51.420;7.036;2023-12-22T06:06:49;13.27;;;2.37;;
18623;SDS011;9441;51.420;7.036;2023-12-22T06:07:52;15.47;;;2.40;;
18623;SDS011;9441;51.420;7.036;2023-12-22T06:08:53;8.50;;;2.60;;
18623;SDS011;9441;51.420;7.036;2023-12-22T06:09:55;15.17;;;2.43;;
18623;SDS011;9441;51.420;7.036;2023-12-22T06:10:57;15.63;;;2.57;;
18623;SDS011;9441;51.420;7.036;2023-12-22T06:11:59;14.10;;;2.90;;
18623;SDS011;9441;51.420;7.036;2023-12-22T06:13:00;10.13;;;2.47;;
18623;SDS011;9441;51.420;7.036;2023-12-22T06:14:03;8.33;;;2.20;;
18623;SDS011;9441;51.420;7.036;2023-12-22T06:15:05;12.67;;;2.50;;
18623;SDS011;9441;51.420;7.036;2023-12-22T06:16:11;10.33;;;2.63;;